createdAt,value
2022-12-18T00:01:10.380Z,63.62
2022-12-18T00:03:36.723Z,63.38
2022-12-18T00:06:03.221Z,63.18
2022-12-18T00:08:29.474Z,63.27
2022-12-18T00:10:55.725Z,63.48
2022-12-18T00:13:26.710Z,63.22
2022-12-18T00:15:54.198Z,63.19
2022-12-18T00:18:22.934Z,62.86
2022-12-18T00:20:49.170Z,63.26
2022-12-18T00:23:15.434Z,63.32
2022-12-18T00:25:41.701Z,63.20
2022-12-18T00:28:07.964Z,63.44
2022-12-18T00:30:34.209Z,63.20
2022-12-18T00:33:00.450Z,62.84
2022-12-18T00:35:26.767Z,63.18
2022-12-18T00:37:53.036Z,63.41
2022-12-18T00:40:19.301Z,63.25
2022-12-18T00:42:45.549Z,64.01
2022-12-18T00:45:13.158Z,64.05
2022-12-18T00:47:39.591Z,63.67
2022-12-18T00:50:06.376Z,63.39
2022-12-18T00:52:32.627Z,63.52
2022-12-18T00:55:01.850Z,63.73
2022-12-18T00:57:32.196Z,63.41
2022-12-18T00:59:58.441Z,63.88
2022-12-18T01:02:24.825Z,63.47
2022-12-18T01:04:51.247Z,63.50
2022-12-18T01:07:17.512Z,63.58
2022-12-18T01:09:43.773Z,63.22
2022-12-18T01:12:10.023Z,63.79
2022-12-18T01:14:36.318Z,63.18
2022-12-18T01:17:02.573Z,63.61
2022-12-18T01:19:28.834Z,63.44
2022-12-18T01:21:55.092Z,63.82
2022-12-18T01:24:21.353Z,63.96
2022-12-18T01:26:47.593Z,63.87
2022-12-18T01:29:13.843Z,64.14
2022-12-18T01:31:40.135Z,64.09
2022-12-18T01:34:06.459Z,64.03
2022-12-18T01:36:32.696Z,64.38
2022-12-18T01:38:58.935Z,63.95
2022-12-18T01:41:25.197Z,64.43
2022-12-18T01:43:51.457Z,64.38
2022-12-18T01:46:17.764Z,64.35
2022-12-18T01:48:44.026Z,64.65
2022-12-18T01:51:10.273Z,63.84
2022-12-18T01:53:37.000Z,64.34
2022-12-18T01:56:03.492Z,63.98
2022-12-18T01:58:29.749Z,64.43
2022-12-18T02:00:56.062Z,64.14
2022-12-18T02:03:22.466Z,64.42
2022-12-18T02:05:48.766Z,64.10
2022-12-18T02:08:15.056Z,64.56
2022-12-18T02:10:41.336Z,63.86
2022-12-18T02:13:07.580Z,63.98
2022-12-18T02:15:33.817Z,64.14
2022-12-18T02:18:00.093Z,64.27
2022-12-18T02:20:26.366Z,63.97
2022-12-18T02:22:52.650Z,64.17
2022-12-18T02:25:19.032Z,63.81
2022-12-18T02:27:45.294Z,63.58
2022-12-18T02:30:11.535Z,64.28
2022-12-18T02:32:37.804Z,64.44
2022-12-18T02:35:04.065Z,64.21
2022-12-18T02:37:30.317Z,64.28
2022-12-18T02:39:56.558Z,63.43
2022-12-18T02:42:22.816Z,63.96
2022-12-18T02:44:49.086Z,64.49
2022-12-18T02:47:15.337Z,63.86
2022-12-18T02:49:41.609Z,63.86
2022-12-18T02:52:07.878Z,64.21
2022-12-18T02:54:34.136Z,64.48
2022-12-18T02:57:00.374Z,64.12
2022-12-18T02:59:26.617Z,64.14
2022-12-18T03:01:52.969Z,64.54
2022-12-18T03:04:19.306Z,64.34
2022-12-18T03:06:45.553Z,64.11
2022-12-18T03:09:11.793Z,63.80
2022-12-18T03:11:38.056Z,64.55
2022-12-18T03:14:04.297Z,64.02
2022-12-18T03:16:30.603Z,64.22
2022-12-18T03:18:56.891Z,64.33
2022-12-18T03:21:23.153Z,63.93
2022-12-18T03:23:49.445Z,64.24
2022-12-18T03:26:15.711Z,64.38
2022-12-18T03:28:41.951Z,64.17
2022-12-18T03:31:08.237Z,64.94
2022-12-18T03:33:34.521Z,64.56
2022-12-18T03:36:00.780Z,65.00
2022-12-18T03:38:27.033Z,64.64
2022-12-18T03:40:53.285Z,64.48
2022-12-18T03:43:19.541Z,64.79
2022-12-18T03:45:45.819Z,64.72
2022-12-18T03:48:12.103Z,65.00
2022-12-18T03:50:38.345Z,64.78
2022-12-18T03:53:04.601Z,64.42
2022-12-18T03:55:30.845Z,64.54
2022-12-18T03:57:57.082Z,63.10
2022-12-18T04:00:23.364Z,64.58
2022-12-18T04:02:49.657Z,64.72
2022-12-18T04:05:15.908Z,64.61
2022-12-18T04:07:42.165Z,63.94
2022-12-18T04:10:08.426Z,64.19
2022-12-18T04:12:34.664Z,64.20
2022-12-18T04:15:00.899Z,64.55
2022-12-18T04:17:27.149Z,64.73
2022-12-18T04:19:53.414Z,64.14
2022-12-18T04:22:19.666Z,64.23
2022-12-18T04:24:46.843Z,64.51
2022-12-18T04:27:13.106Z,64.85
2022-12-18T04:29:39.344Z,64.03
2022-12-18T04:32:05.589Z,64.67
2022-12-18T04:34:31.840Z,64.56
2022-12-18T04:36:58.089Z,64.78
2022-12-18T04:39:24.708Z,64.07
2022-12-18T04:41:51.346Z,64.62
2022-12-18T04:44:17.643Z,63.58
2022-12-18T04:46:43.942Z,63.97
2022-12-18T04:49:10.212Z,63.71
2022-12-18T04:51:36.450Z,64.47
2022-12-18T04:54:02.741Z,63.87
2022-12-18T04:56:28.992Z,63.79
2022-12-18T04:58:55.233Z,63.86
2022-12-18T05:01:21.580Z,62.93
2022-12-18T05:03:48.013Z,63.83
2022-12-18T05:06:14.297Z,63.81
2022-12-18T05:08:40.567Z,63.25
2022-12-18T05:11:07.456Z,63.89
2022-12-18T05:13:33.760Z,63.40
2022-12-18T05:16:00.041Z,63.29
2022-12-18T05:18:26.366Z,64.28
2022-12-18T05:20:52.606Z,64.44
2022-12-18T05:23:18.846Z,64.88
2022-12-18T05:25:45.128Z,64.84
2022-12-18T05:28:11.402Z,64.19
2022-12-18T05:30:37.640Z,64.52
2022-12-18T05:33:03.886Z,64.59
2022-12-18T05:35:30.129Z,63.90
2022-12-18T05:37:56.369Z,64.48
2022-12-18T05:40:22.621Z,64.40
2022-12-18T05:42:48.877Z,64.53
2022-12-18T05:45:15.152Z,64.30
2022-12-18T05:47:41.428Z,64.23
2022-12-18T05:50:07.684Z,63.60
2022-12-18T05:52:33.952Z,63.47
2022-12-18T05:55:00.192Z,64.14
2022-12-18T05:57:26.469Z,63.48
2022-12-18T05:59:52.715Z,63.33
2022-12-18T06:02:19.085Z,63.90
2022-12-18T06:04:45.446Z,64.12
2022-12-18T06:07:11.701Z,63.44
2022-12-18T06:09:37.962Z,63.06
2022-12-18T06:12:04.201Z,63.72
2022-12-18T06:14:30.442Z,63.42
2022-12-18T06:16:56.696Z,63.34
2022-12-18T06:19:22.939Z,63.93
2022-12-18T06:21:49.213Z,64.70
2022-12-18T06:24:15.484Z,64.15
2022-12-18T06:26:41.729Z,64.60
2022-12-18T06:29:07.997Z,65.02
2022-12-18T06:31:34.281Z,64.34
2022-12-18T06:34:00.565Z,63.33
2022-12-18T06:36:27.615Z,63.14
2022-12-18T06:38:53.877Z,63.87
2022-12-18T06:41:20.133Z,62.76
2022-12-18T06:43:46.373Z,62.84
2022-12-18T06:46:12.797Z,63.45
2022-12-18T06:48:39.117Z,63.52
2022-12-18T06:51:05.395Z,62.95
2022-12-18T06:53:31.638Z,63.40
2022-12-18T06:55:57.873Z,63.60
2022-12-18T06:58:24.141Z,63.55
2022-12-18T07:00:50.431Z,63.59
2022-12-18T07:03:16.740Z,63.63
2022-12-18T07:05:42.990Z,63.71
2022-12-18T07:08:09.244Z,63.87
2022-12-18T07:10:36.509Z,62.97
2022-12-18T07:13:02.883Z,63.43
2022-12-18T07:15:29.133Z,63.22
2022-12-18T07:17:55.379Z,63.01
2022-12-18T07:20:21.642Z,64.29
2022-12-18T07:22:50.828Z,62.70
2022-12-18T07:25:21.010Z,62.79
2022-12-18T07:27:47.265Z,63.54
2022-12-18T07:30:13.512Z,64.77
2022-12-18T07:32:39.754Z,63.72
2022-12-18T07:35:05.997Z,64.09
2022-12-18T07:37:32.249Z,63.22
2022-12-18T07:39:58.513Z,63.66
2022-12-18T07:42:24.773Z,63.24
2022-12-18T07:44:51.995Z,63.19
2022-12-18T07:47:18.256Z,62.95
2022-12-18T07:49:44.521Z,62.49
2022-12-18T07:52:10.795Z,62.70
2022-12-18T07:54:37.041Z,62.06
2022-12-18T07:57:03.298Z,63.16
2022-12-18T07:59:29.562Z,62.68
2022-12-18T08:01:56.048Z,62.76
2022-12-18T08:04:22.389Z,63.47
2022-12-18T08:06:48.670Z,62.69
2022-12-18T08:09:14.943Z,63.39
2022-12-18T08:11:41.311Z,63.39
2022-12-18T08:14:07.585Z,63.97
2022-12-18T08:16:33.870Z,63.61
2022-12-18T08:19:00.121Z,63.57
2022-12-18T08:21:26.377Z,63.96
2022-12-18T08:23:52.817Z,63.79
2022-12-18T08:26:19.140Z,63.83
2022-12-18T08:28:45.735Z,63.87
2022-12-18T08:31:12.041Z,63.48
2022-12-18T08:33:38.602Z,63.82
2022-12-18T08:36:05.198Z,63.55
2022-12-18T08:38:31.457Z,63.48
2022-12-18T08:40:57.756Z,62.90
2022-12-18T08:43:24.028Z,63.17
2022-12-18T08:45:50.356Z,63.28
2022-12-18T08:48:20.665Z,63.31
2022-12-18T08:50:48.330Z,63.44
2022-12-18T08:53:14.700Z,63.05
2022-12-18T08:55:43.545Z,63.13
2022-12-18T08:58:12.053Z,63.28
2022-12-18T09:00:38.328Z,63.26
2022-12-18T09:03:04.625Z,62.94
2022-12-18T09:05:30.944Z,62.81
2022-12-18T09:07:57.188Z,65.26
2022-12-18T09:10:23.523Z,62.17
2022-12-18T09:12:49.778Z,63.09
2022-12-18T09:15:16.108Z,63.22
2022-12-18T09:17:42.472Z,63.29
2022-12-18T09:20:08.718Z,63.00
2022-12-18T09:22:34.957Z,63.08
2022-12-18T09:25:01.226Z,62.69
2022-12-18T09:27:27.481Z,63.25
2022-12-18T09:29:53.725Z,62.78
2022-12-18T09:32:22.444Z,62.93
2022-12-18T09:34:49.049Z,63.48
2022-12-18T09:37:15.288Z,63.25
2022-12-18T09:39:41.544Z,62.44
2022-12-18T09:42:07.791Z,62.98
2022-12-18T09:44:34.072Z,62.91
2022-12-18T09:47:00.368Z,63.25
2022-12-18T09:49:26.625Z,62.58
2022-12-18T09:51:52.884Z,62.80
2022-12-18T09:54:19.142Z,62.83
2022-12-18T09:56:45.577Z,62.97
2022-12-18T09:59:11.814Z,62.99
2022-12-18T10:01:44.258Z,62.91
2022-12-18T10:04:11.042Z,62.68
2022-12-18T10:06:37.354Z,62.93
2022-12-18T10:09:03.591Z,63.13
2022-12-18T10:11:29.835Z,63.53
2022-12-18T10:13:56.077Z,63.13
2022-12-18T10:16:22.384Z,63.32
2022-12-18T10:18:48.695Z,62.95
2022-12-18T10:21:14.935Z,61.70
2022-12-18T10:23:45.083Z,61.36
2022-12-18T10:26:14.379Z,61.98
2022-12-18T10:28:41.619Z,62.11
2022-12-18T10:31:08.258Z,62.53
2022-12-18T10:33:34.554Z,62.47
2022-12-18T10:36:00.817Z,62.05
2022-12-18T10:38:27.072Z,62.41
2022-12-18T10:40:53.423Z,62.79
2022-12-18T10:43:19.674Z,62.35
2022-12-18T10:45:45.931Z,62.55
2022-12-18T10:48:12.204Z,61.87
2022-12-18T10:51:09.832Z,61.99
2022-12-18T10:53:24.673Z,62.06
2022-12-18T10:55:51.457Z,61.81
2022-12-18T10:58:19.979Z,61.97
2022-12-18T11:00:49.798Z,61.84
2022-12-18T11:03:16.113Z,61.88
2022-12-18T11:05:42.449Z,62.51
2022-12-18T11:08:08.693Z,62.55
2022-12-18T11:10:34.934Z,62.58
2022-12-18T11:13:01.209Z,61.69
2022-12-18T11:15:29.106Z,61.77
2022-12-18T11:17:55.380Z,61.39
2022-12-18T11:20:21.622Z,61.31
2022-12-18T11:22:47.882Z,61.38
2022-12-18T11:28:00.353Z,61.32
2022-12-18T11:30:26.748Z,61.58
2022-12-18T11:32:52.995Z,61.98
2022-12-18T11:35:19.234Z,61.82
2022-12-18T11:37:45.485Z,61.67
2022-12-18T11:40:11.734Z,61.33
2022-12-18T11:42:38.001Z,61.64
2022-12-18T11:45:04.263Z,61.96
2022-12-18T11:47:30.534Z,62.07
2022-12-18T11:49:56.772Z,61.82
2022-12-18T11:52:23.026Z,61.57
2022-12-18T11:54:49.284Z,61.40
2022-12-18T11:57:15.530Z,61.15
2022-12-18T11:59:41.769Z,61.37
2022-12-18T12:02:08.097Z,61.01
2022-12-18T12:04:34.414Z,61.11
2022-12-18T12:07:03.208Z,60.83
2022-12-18T12:09:29.748Z,61.52
2022-12-18T12:11:56.006Z,61.32
2022-12-18T12:14:22.237Z,61.46
2022-12-18T12:16:48.515Z,61.83
2022-12-18T12:19:14.770Z,61.69
2022-12-18T12:21:41.020Z,62.27
2022-12-18T12:24:07.285Z,61.86
2022-12-18T12:26:33.526Z,60.95
2022-12-18T12:28:59.933Z,61.66
2022-12-18T12:31:26.240Z,61.70
2022-12-18T12:33:52.518Z,61.55
2022-12-18T12:36:18.760Z,62.08
2022-12-18T12:38:51.418Z,61.31
2022-12-18T12:41:18.325Z,61.37
2022-12-18T12:43:50.371Z,61.01
2022-12-18T12:46:17.498Z,60.76
2022-12-18T12:48:44.141Z,62.06
2022-12-18T12:51:10.567Z,61.45
2022-12-18T12:53:37.157Z,61.10
2022-12-18T12:56:04.437Z,61.38
2022-12-18T12:58:30.789Z,61.26
2022-12-18T13:00:57.157Z,61.54
2022-12-18T13:03:23.513Z,61.57
2022-12-18T13:05:50.013Z,61.20
2022-12-18T13:08:16.259Z,61.84
2022-12-18T13:10:44.637Z,61.44
2022-12-18T13:13:11.010Z,61.46
2022-12-18T13:15:39.772Z,61.36
2022-12-18T13:18:06.316Z,61.60
2022-12-18T13:20:34.031Z,61.31
2022-12-18T13:23:00.961Z,61.57
2022-12-18T13:25:27.498Z,61.35
2022-12-18T13:27:53.758Z,62.17
2022-12-18T13:30:22.122Z,61.41
2022-12-18T13:32:49.433Z,61.72
2022-12-18T13:35:15.686Z,61.24
2022-12-18T13:37:42.157Z,61.47
2022-12-18T13:40:08.800Z,60.82
2022-12-18T13:42:35.057Z,61.48
2022-12-18T13:45:01.398Z,61.50
2022-12-18T13:47:27.742Z,61.68
2022-12-18T13:49:54.257Z,61.26
2022-12-18T13:52:20.520Z,61.30
2022-12-18T13:54:46.759Z,61.35
2022-12-18T13:57:14.504Z,61.49
2022-12-18T13:59:42.701Z,61.42
2022-12-18T14:02:09.112Z,61.52
2022-12-18T14:04:35.575Z,61.94
2022-12-18T14:07:01.844Z,61.87
2022-12-18T14:09:28.109Z,61.88
2022-12-18T14:11:56.056Z,62.34
2022-12-18T14:14:22.760Z,61.60
2022-12-18T14:16:50.401Z,62.25
2022-12-18T14:19:16.866Z,62.45
2022-12-18T14:21:43.107Z,62.47
2022-12-18T14:24:09.345Z,61.81
2022-12-18T14:26:35.604Z,62.29
2022-12-18T14:29:01.866Z,62.17
2022-12-18T14:31:28.123Z,62.37
2022-12-18T14:33:54.376Z,62.88
2022-12-18T14:36:20.630Z,62.84
2022-12-18T14:38:46.890Z,63.29
2022-12-18T14:41:13.149Z,63.57
2022-12-18T14:43:39.738Z,63.52
2022-12-18T14:46:06.241Z,63.20
2022-12-18T14:48:32.536Z,63.36
2022-12-18T14:50:58.782Z,63.70
2022-12-18T14:53:25.024Z,63.02
2022-12-18T14:55:51.417Z,62.74
2022-12-18T14:58:17.664Z,63.20
2022-12-18T15:00:43.921Z,63.22
2022-12-18T15:03:10.194Z,62.74
2022-12-18T15:05:36.494Z,62.85
2022-12-18T15:08:02.757Z,62.95
2022-12-18T15:10:29.007Z,63.14
2022-12-18T15:12:55.249Z,62.83
2022-12-18T15:15:21.597Z,62.91
2022-12-18T15:17:47.838Z,62.76
2022-12-18T15:20:14.097Z,62.68
2022-12-18T15:22:40.358Z,62.48
2022-12-18T15:25:06.597Z,62.54
2022-12-18T15:27:32.847Z,62.35
2022-12-18T15:29:59.111Z,62.88
2022-12-18T15:32:26.389Z,62.85
2022-12-18T15:34:52.630Z,62.78
2022-12-18T15:37:18.892Z,63.02
2022-12-18T15:39:45.133Z,63.02
2022-12-18T15:42:11.370Z,63.33
2022-12-18T15:44:37.628Z,62.75
2022-12-18T15:47:03.890Z,63.01
2022-12-18T15:49:30.139Z,63.04
2022-12-18T15:51:56.383Z,63.29
2022-12-18T15:54:22.630Z,64.18
2022-12-18T15:56:48.870Z,64.73
2022-12-18T15:59:15.964Z,64.68
2022-12-18T16:01:42.807Z,64.97
2022-12-18T16:04:09.383Z,65.05
2022-12-18T16:06:51.079Z,65.13
2022-12-18T16:09:26.198Z,65.34
2022-12-18T16:11:52.914Z,65.25
2022-12-18T16:14:19.169Z,64.66
2022-12-18T16:16:45.422Z,64.71
2022-12-18T16:19:11.673Z,64.52
2022-12-18T16:21:37.925Z,65.01
2022-12-18T16:24:04.177Z,65.10
2022-12-18T16:26:30.427Z,64.85
2022-12-18T16:28:56.674Z,65.46
2022-12-18T16:31:22.969Z,65.09
2022-12-18T16:33:49.264Z,65.13
2022-12-18T16:36:15.516Z,65.18
2022-12-18T16:38:41.791Z,65.20
2022-12-18T16:41:08.038Z,65.44
2022-12-18T16:43:34.277Z,65.21
2022-12-18T16:46:00.595Z,65.32
2022-12-18T16:48:26.956Z,65.60
2022-12-18T16:50:53.197Z,65.33
2022-12-18T16:53:19.459Z,65.55
2022-12-18T16:55:46.280Z,65.45
2022-12-18T16:58:12.532Z,65.46
2022-12-18T17:00:38.814Z,65.30
2022-12-18T17:03:05.237Z,65.38
2022-12-18T17:05:31.574Z,65.48
2022-12-18T17:07:57.815Z,65.69
2022-12-18T17:10:24.077Z,65.52
2022-12-18T17:12:50.343Z,65.63
2022-12-18T17:15:16.594Z,65.62
2022-12-18T17:17:43.514Z,65.70
2022-12-18T17:20:09.757Z,65.72
2022-12-18T17:22:36.000Z,65.28
2022-12-18T17:25:02.258Z,65.66
2022-12-18T17:27:28.508Z,65.20
2022-12-18T17:29:54.744Z,65.58
2022-12-18T17:32:21.005Z,65.44
2022-12-18T17:34:47.243Z,65.39
2022-12-18T17:37:13.521Z,64.96
2022-12-18T17:39:39.773Z,65.23
2022-12-18T17:42:06.037Z,65.53
2022-12-18T17:44:33.989Z,65.60
2022-12-18T17:47:00.292Z,65.56
2022-12-18T17:49:26.584Z,65.51
2022-12-18T17:51:52.827Z,65.62
2022-12-18T17:54:19.075Z,65.42
2022-12-18T17:56:45.334Z,65.52
2022-12-18T17:59:11.589Z,66.05
2022-12-18T18:01:44.001Z,66.16
2022-12-18T18:04:11.166Z,65.90
2022-12-18T18:06:39.068Z,65.88
2022-12-18T18:09:05.762Z,65.85
2022-12-18T18:11:34.391Z,65.57
2022-12-18T18:14:00.767Z,65.86
2022-12-18T18:16:27.072Z,66.35
2022-12-18T18:18:53.342Z,66.26
2022-12-18T18:21:19.606Z,66.16
2022-12-18T18:23:47.073Z,66.31
2022-12-18T18:26:15.115Z,66.09
2022-12-18T18:28:41.441Z,66.35
2022-12-18T18:31:07.744Z,66.72
2022-12-18T18:33:34.070Z,65.88
2022-12-18T18:36:00.333Z,65.77
2022-12-18T18:38:26.592Z,65.82
2022-12-18T18:40:52.840Z,65.91
2022-12-18T18:43:19.086Z,66.27
2022-12-18T18:45:45.386Z,66.56
2022-12-18T18:48:13.562Z,66.14
2022-12-18T18:50:39.816Z,66.50
2022-12-18T18:53:06.081Z,66.09
2022-12-18T18:55:32.352Z,66.06
2022-12-18T18:57:58.714Z,66.40
2022-12-18T19:00:26.485Z,66.22
2022-12-18T19:02:57.669Z,66.39
2022-12-18T19:05:26.621Z,65.88
2022-12-18T19:07:52.922Z,65.78
2022-12-18T19:10:19.193Z,66.19
2022-12-18T19:12:45.450Z,66.57
2022-12-18T19:15:11.698Z,66.46
2022-12-18T19:17:40.001Z,66.33
2022-12-18T19:20:06.533Z,67.11
2022-12-18T19:22:34.609Z,66.51
2022-12-18T19:25:00.868Z,66.21
2022-12-18T19:27:27.119Z,66.14
2022-12-18T19:29:53.354Z,66.04
2022-12-18T19:32:19.659Z,66.22
2022-12-18T19:34:45.993Z,66.35
2022-12-18T19:37:13.979Z,66.29
2022-12-18T19:39:40.424Z,66.53
2022-12-18T19:42:06.661Z,66.33
2022-12-18T19:44:32.917Z,66.99
2022-12-18T19:46:59.163Z,66.41
2022-12-18T19:49:25.402Z,67.05
2022-12-18T19:51:51.654Z,66.73
2022-12-18T19:54:18.070Z,66.68
2022-12-18T19:56:44.362Z,66.52
2022-12-18T19:59:10.626Z,66.55
2022-12-18T20:01:37.040Z,66.69
2022-12-18T20:04:03.556Z,67.31
2022-12-18T20:06:30.337Z,66.74
2022-12-18T20:09:00.067Z,66.65
2022-12-18T20:11:27.255Z,66.69
2022-12-18T20:13:53.505Z,67.04
2022-12-18T20:16:19.772Z,67.04
2022-12-18T20:18:46.182Z,66.91
2022-12-18T20:21:14.264Z,66.98
2022-12-18T20:23:41.013Z,67.39
2022-12-18T20:26:08.548Z,67.10
2022-12-18T20:28:35.030Z,66.94
2022-12-18T20:31:01.305Z,67.20
2022-12-18T20:33:27.655Z,66.86
2022-12-18T20:35:53.894Z,67.23
2022-12-18T20:38:20.514Z,67.13
2022-12-18T20:40:47.936Z,67.08
2022-12-18T20:43:17.310Z,66.45
2022-12-18T20:45:43.880Z,66.92
2022-12-18T20:48:12.134Z,66.72
2022-12-18T20:50:38.377Z,66.80
2022-12-18T20:53:04.633Z,66.85
2022-12-18T20:55:30.901Z,66.96
2022-12-18T20:57:57.150Z,67.43
2022-12-18T21:00:23.389Z,66.96
2022-12-18T21:02:49.687Z,67.38
2022-12-18T21:05:15.968Z,67.31
2022-12-18T21:07:42.214Z,66.88
2022-12-18T21:10:08.457Z,66.85
2022-12-18T21:12:40.542Z,67.17
2022-12-18T21:15:15.941Z,67.41
2022-12-18T21:17:44.611Z,67.56
2022-12-18T21:20:11.398Z,67.59
2022-12-18T21:22:43.919Z,67.04
2022-12-18T21:25:10.162Z,66.91
2022-12-18T21:27:36.405Z,67.20
2022-12-18T21:30:02.663Z,67.66
2022-12-18T21:32:29.296Z,67.66
2022-12-18T21:34:59.628Z,67.48
2022-12-18T21:37:25.878Z,67.04
2022-12-18T21:39:52.154Z,66.87
2022-12-18T21:42:18.555Z,66.63
2022-12-18T21:44:44.999Z,67.25
2022-12-18T21:47:21.537Z,67.23
2022-12-18T21:49:49.355Z,66.82
2022-12-18T21:52:16.387Z,67.11
2022-12-18T21:54:42.630Z,67.13
2022-12-18T21:57:08.874Z,66.81
2022-12-18T21:59:35.121Z,66.62
2022-12-18T22:02:01.448Z,66.51
2022-12-18T22:04:27.812Z,66.55
2022-12-18T22:06:54.454Z,66.48
2022-12-18T22:09:20.693Z,66.85
2022-12-18T22:11:46.946Z,66.72
2022-12-18T22:14:13.193Z,66.62
2022-12-18T22:16:39.429Z,66.43
2022-12-18T22:19:06.029Z,66.30
2022-12-18T22:21:32.284Z,66.53
2022-12-18T22:23:58.530Z,66.21
2022-12-18T22:26:24.766Z,66.57
2022-12-18T22:28:51.106Z,66.60
2022-12-18T22:31:17.389Z,66.23
2022-12-18T22:33:43.650Z,66.68
2022-12-18T22:36:11.617Z,66.16
2022-12-18T22:38:37.878Z,66.69
2022-12-18T22:41:04.160Z,66.84
2022-12-18T22:43:30.418Z,66.62
2022-12-18T22:45:56.665Z,67.16
2022-12-18T22:48:23.155Z,67.01
2022-12-18T22:50:49.402Z,66.66
2022-12-18T22:53:17.195Z,66.72
2022-12-18T22:55:43.434Z,67.15
2022-12-18T22:58:09.690Z,66.75
2022-12-18T23:00:35.938Z,67.35
2022-12-18T23:03:02.379Z,67.12
2022-12-18T23:05:28.742Z,67.41
2022-12-18T23:07:55.017Z,67.17
2022-12-18T23:10:21.266Z,67.30
2022-12-18T23:12:47.534Z,66.91
2022-12-18T23:15:13.774Z,67.03
2022-12-18T23:17:42.382Z,67.29
2022-12-18T23:20:08.652Z,67.53
2022-12-18T23:22:34.895Z,67.28
2022-12-18T23:25:01.141Z,67.72
2022-12-18T23:27:27.385Z,67.77
2022-12-18T23:29:53.633Z,67.70
2022-12-18T23:32:21.471Z,67.24
2022-12-18T23:34:47.712Z,67.88
2022-12-18T23:37:24.951Z,67.54
2022-12-18T23:40:00.200Z,67.15
2022-12-18T23:42:26.481Z,67.65
2022-12-18T23:44:54.277Z,67.35
2022-12-18T23:47:20.521Z,67.58
2022-12-18T23:49:46.782Z,67.40
2022-12-18T23:52:13.389Z,67.82
2022-12-18T23:54:39.664Z,67.72
2022-12-18T23:57:05.906Z,67.28
2022-12-18T23:59:32.153Z,67.26
